sensor_id;sensor_type;location;lat;lon;timestamp;temperature;humidity
38684;DHT22;24910;53.248;-6.134;2023-12-04T00:00:11;7.00;88.20
38684;DHT22;24910;53.248;-6.134;2023-12-04T00:02:42;7.00;88.10
38684;DHT22;24910;53.248;-6.134;2023-12-04T00:05:11;7.00;88.10
38684;DHT22;24910;53.248;-6.134;2023-12-04T00:07:41;7.00;88.10
38684;DHT22;24910;53.248;-6.134;2023-12-04T00:10:10;7.00;88.10
38684;DHT22;24910;53.248;-6.134;2023-12-04T00:12:40;7.00;88.10
38684;DHT22;24910;53.248;-6.134;2023-12-04T00:15:10;7.00;87.90
38684;DHT22;24910;53.248;-6.134;2023-12-04T00:17:39;7.00;87.90
38684;DHT22;24910;53.248;-6.134;2023-12-04T00:20:09;6.90;87.90
38684;DHT22;24910;53.248;-6.134;2023-12-04T00:22:38;7.00;87.90
38684;DHT22;24910;53.248;-6.134;2023-12-04T00:25:08;7.00;87.80
38684;DHT22;24910;53.248;-6.134;2023-12-04T00:27:37;7.10;87.90
38684;DHT22;24910;53.248;-6.134;2023-12-04T00:30:09;7.10;87.90
38684;DHT22;24910;53.248;-6.134;2023-12-04T00:32:38;7.10;87.90
38684;DHT22;24910;53.248;-6.134;2023-12-04T00:35:08;7.10;88.00
38684;DHT22;24910;53.248;-6.134;2023-12-04T00:37:37;7.10;88.00
38684;DHT22;24910;53.248;-6.134;2023-12-04T00:40:07;7.10;88.00
38684;DHT22;24910;53.248;-6.134;2023-12-04T00:42:37;7.10;88.00
38684;DHT22;24910;53.248;-6.134;2023-12-04T00:45:08;7.10;88.00
38684;DHT22;24910;53.248;-6.134;2023-12-04T00:47:38;7.10;88.10
38684;DHT22;24910;53.248;-6.134;2023-12-04T00:50:07;7.10;88.20
38684;DHT22;24910;53.248;-6.134;2023-12-04T00:52:37;7.10;88.20
38684;DHT22;24910;53.248;-6.134;2023-12-04T00:55:06;7.10;88.20
38684;DHT22;24910;53.248;-6.134;2023-12-04T00:57:36;7.10;88.20
38684;DHT22;24910;53.248;-6.134;2023-12-04T01:00:08;7.10;88.20
38684;DHT22;24910;53.248;-6.134;2023-12-04T01:02:37;7.10;88.30
38684;DHT22;24910;53.248;-6.134;2023-12-04T01:05:07;7.20;88.30
38684;DHT22;24910;53.248;-6.134;2023-12-04T01:07:36;7.20;88.30
38684;DHT22;24910;53.248;-6.134;2023-12-04T01:10:06;7.20;88.30
38684;DHT22;24910;53.248;-6.134;2023-12-04T01:12:35;7.20;88.40
38684;DHT22;24910;53.248;-6.134;2023-12-04T01:15:05;7.20;88.30
38684;DHT22;24910;53.248;-6.134;2023-12-04T01:17:36;7.10;88.30
38684;DHT22;24910;53.248;-6.134;2023-12-04T01:20:07;7.20;88.50
38684;DHT22;24910;53.248;-6.134;2023-12-04T01:22:37;7.20;88.60
38684;DHT22;24910;53.248;-6.134;2023-12-04T01:25:07;7.20;88.70
38684;DHT22;24910;53.248;-6.134;2023-12-04T01:27:37;7.20;88.80
38684;DHT22;24910;53.248;-6.134;2023-12-04T01:30:07;7.10;88.90
38684;DHT22;24910;53.248;-6.134;2023-12-04T01:32:38;7.20;89.00
38684;DHT22;24910;53.248;-6.134;2023-12-04T01:35:07;7.10;89.20
38684;DHT22;24910;53.248;-6.134;2023-12-04T01:37:37;7.20;89.40
38684;DHT22;24910;53.248;-6.134;2023-12-04T01:40:08;7.20;89.50
38684;DHT22;24910;53.248;-6.134;2023-12-04T01:42:38;7.20;89.40
38684;DHT22;24910;53.248;-6.134;2023-12-04T01:45:08;7.20;89.50
38684;DHT22;24910;53.248;-6.134;2023-12-04T01:47:39;7.20;89.50
38684;DHT22;24910;53.248;-6.134;2023-12-04T01:50:09;7.20;89.70
38684;DHT22;24910;53.248;-6.134;2023-12-04T01:52:39;7.20;89.70
38684;DHT22;24910;53.248;-6.134;2023-12-04T01:55:10;7.20;90.00
38684;DHT22;24910;53.248;-6.134;2023-12-04T01:57:39;7.20;90.00
38684;DHT22;24910;53.248;-6.134;2023-12-04T02:00:10;7.20;90.00
38684;DHT22;24910;53.248;-6.134;2023-12-04T02:02:41;7.20;90.00
38684;DHT22;24910;53.248;-6.134;2023-12-04T02:05:11;7.20;90.10
38684;DHT22;24910;53.248;-6.134;2023-12-04T02:07:41;7.20;90.10
38684;DHT22;24910;53.248;-6.134;2023-12-04T02:10:11;7.20;90.00
38684;DHT22;24910;53.248;-6.134;2023-12-04T02:12:41;7.20;89.90
38684;DHT22;24910;53.248;-6.134;2023-12-04T02:15:11;7.20;89.70
38684;DHT22;24910;53.248;-6.134;2023-12-04T02:17:49;7.20;89.50
38684;DHT22;24910;53.248;-6.134;2023-12-04T02:20:20;7.20;89.40
38684;DHT22;24910;53.248;-6.134;2023-12-04T02:22:49;7.20;89.10
38684;DHT22;24910;53.248;-6.134;2023-12-04T02:25:20;7.20;88.90
38684;DHT22;24910;53.248;-6.134;2023-12-04T02:28:05;7.20;88.60
38684;DHT22;24910;53.248;-6.134;2023-12-04T02:30:35;7.30;88.40
38684;DHT22;24910;53.248;-6.134;2023-12-04T02:33:07;7.30;88.10
38684;DHT22;24910;53.248;-6.134;2023-12-04T02:35:38;7.30;87.80
38684;DHT22;24910;53.248;-6.134;2023-12-04T02:38:08;7.40;87.70
38684;DHT22;24910;53.248;-6.134;2023-12-04T02:40:40;7.40;87.60
38684;DHT22;24910;53.248;-6.134;2023-12-04T02:43:09;7.40;87.60
38684;DHT22;24910;53.248;-6.134;2023-12-04T02:45:39;7.40;87.50
38684;DHT22;24910;53.248;-6.134;2023-12-04T02:48:08;7.40;87.50
38684;DHT22;24910;53.248;-6.134;2023-12-04T02:50:38;7.50;87.60
38684;DHT22;24910;53.248;-6.134;2023-12-04T02:53:07;7.50;87.60
38684;DHT22;24910;53.248;-6.134;2023-12-04T02:55:36;7.50;87.60
38684;DHT22;24910;53.248;-6.134;2023-12-04T02:58:07;7.50;87.50
38684;DHT22;24910;53.248;-6.134;2023-12-04T03:00:36;7.50;87.20
38684;DHT22;24910;53.248;-6.134;2023-12-04T03:03:05;7.50;87.00
38684;DHT22;24910;53.248;-6.134;2023-12-04T03:05:35;7.50;86.60
38684;DHT22;24910;53.248;-6.134;2023-12-04T03:08:04;7.60;86.40
38684;DHT22;24910;53.248;-6.134;2023-12-04T03:10:33;7.60;86.30
38684;DHT22;24910;53.248;-6.134;2023-12-04T03:13:02;7.60;86.20
38684;DHT22;24910;53.248;-6.134;2023-12-04T03:15:33;7.60;86.40
38684;DHT22;24910;53.248;-6.134;2023-12-04T03:18:02;7.60;86.60
38684;DHT22;24910;53.248;-6.134;2023-12-04T03:20:33;7.60;86.60
38684;DHT22;24910;53.248;-6.134;2023-12-04T03:23:02;7.60;86.70
38684;DHT22;24910;53.248;-6.134;2023-12-04T03:25:31;7.60;86.70
38684;DHT22;24910;53.248;-6.134;2023-12-04T03:28:01;7.60;86.80
38684;DHT22;24910;53.248;-6.134;2023-12-04T03:30:30;7.60;86.80
38684;DHT22;24910;53.248;-6.134;2023-12-04T03:33:01;7.70;86.90
38684;DHT22;24910;53.248;-6.134;2023-12-04T03:35:30;7.60;86.60
38684;DHT22;24910;53.248;-6.134;2023-12-04T03:38:00;7.60;86.60
38684;DHT22;24910;53.248;-6.134;2023-12-04T03:40:29;7.60;86.50
38684;DHT22;24910;53.248;-6.134;2023-12-04T03:42:58;7.60;86.60
38684;DHT22;24910;53.248;-6.134;2023-12-04T03:45:27;7.60;86.60
38684;DHT22;24910;53.248;-6.134;2023-12-04T03:47:57;7.60;86.60
38684;DHT22;24910;53.248;-6.134;2023-12-04T03:50:27;7.50;86.60
38684;DHT22;24910;53.248;-6.134;2023-12-04T03:52:57;7.60;86.70
38684;DHT22;24910;53.248;-6.134;2023-12-04T03:55:26;7.60;86.70
38684;DHT22;24910;53.248;-6.134;2023-12-04T03:57:57;7.60;86.60
38684;DHT22;24910;53.248;-6.134;2023-12-04T04:00:27;7.50;86.50
38684;DHT22;24910;53.248;-6.134;2023-12-04T04:02:56;7.50;86.30
38684;DHT22;24910;53.248;-6.134;2023-12-04T04:05:26;7.50;86.20
38684;DHT22;24910;53.248;-6.134;2023-12-04T04:07:56;7.50;86.00
38684;DHT22;24910;53.248;-6.134;2023-12-04T04:10:25;7.50;85.80
38684;DHT22;24910;53.248;-6.134;2023-12-04T04:12:55;7.50;85.70
38684;DHT22;24910;53.248;-6.134;2023-12-04T04:15:24;7.50;85.50
38684;DHT22;24910;53.248;-6.134;2023-12-04T04:17:54;7.50;85.30
38684;DHT22;24910;53.248;-6.134;2023-12-04T04:20:23;7.50;85.30
38684;DHT22;24910;53.248;-6.134;2023-12-04T04:22:54;7.50;85.20
38684;DHT22;24910;53.248;-6.134;2023-12-04T04:25:23;7.50;85.40
38684;DHT22;24910;53.248;-6.134;2023-12-04T04:27:52;7.50;85.70
38684;DHT22;24910;53.248;-6.134;2023-12-04T04:30:21;7.50;85.80
38684;DHT22;24910;53.248;-6.134;2023-12-04T04:32:51;7.40;85.90
38684;DHT22;24910;53.248;-6.134;2023-12-04T04:35:20;7.50;85.80
38684;DHT22;24910;53.248;-6.134;2023-12-04T04:37:50;7.40;85.60
38684;DHT22;24910;53.248;-6.134;2023-12-04T04:40:20;7.40;85.50
38684;DHT22;24910;53.248;-6.134;2023-12-04T04:42:49;7.40;85.40
38684;DHT22;24910;53.248;-6.134;2023-12-04T04:45:19;7.40;85.50
38684;DHT22;24910;53.248;-6.134;2023-12-04T04:47:48;7.40;85.60
38684;DHT22;24910;53.248;-6.134;2023-12-04T04:50:17;7.40;85.80
38684;DHT22;24910;53.248;-6.134;2023-12-04T04:52:46;7.40;85.80
38684;DHT22;24910;53.248;-6.134;2023-12-04T04:55:16;7.30;85.70
38684;DHT22;24910;53.248;-6.134;2023-12-04T04:58:06;7.30;85.70
38684;DHT22;24910;53.248;-6.134;2023-12-04T05:00:36;7.30;85.80
38684;DHT22;24910;53.248;-6.134;2023-12-04T05:03:05;7.30;86.00
38684;DHT22;24910;53.248;-6.134;2023-12-04T05:05:37;7.20;86.10
38684;DHT22;24910;53.248;-6.134;2023-12-04T05:08:06;7.20;86.30
38684;DHT22;24910;53.248;-6.134;2023-12-04T05:10:35;7.20;86.40
38684;DHT22;24910;53.248;-6.134;2023-12-04T05:13:08;7.10;86.50
38684;DHT22;24910;53.248;-6.134;2023-12-04T05:15:37;7.00;86.80
38684;DHT22;24910;53.248;-6.134;2023-12-04T05:18:06;7.00;86.90
38684;DHT22;24910;53.248;-6.134;2023-12-04T05:20:36;7.00;87.00
38684;DHT22;24910;53.248;-6.134;2023-12-04T05:23:05;7.00;87.00
38684;DHT22;24910;53.248;-6.134;2023-12-04T05:25:34;7.00;87.00
38684;DHT22;24910;53.248;-6.134;2023-12-04T05:28:13;7.10;87.00
38684;DHT22;24910;53.248;-6.134;2023-12-04T05:30:42;7.10;86.90
38684;DHT22;24910;53.248;-6.134;2023-12-04T05:33:11;7.10;86.90
38684;DHT22;24910;53.248;-6.134;2023-12-04T05:35:41;7.10;86.80
38684;DHT22;24910;53.248;-6.134;2023-12-04T05:38:10;7.10;86.90
38684;DHT22;24910;53.248;-6.134;2023-12-04T05:40:40;7.10;87.00
38684;DHT22;24910;53.248;-6.134;2023-12-04T05:43:09;7.10;87.00
38684;DHT22;24910;53.248;-6.134;2023-12-04T05:45:40;7.10;87.00
38684;DHT22;24910;53.248;-6.134;2023-12-04T05:48:09;7.10;86.90
38684;DHT22;24910;53.248;-6.134;2023-12-04T05:50:39;7.10;86.70
38684;DHT22;24910;53.248;-6.134;2023-12-04T05:53:08;7.10;86.60
38684;DHT22;24910;53.248;-6.134;2023-12-04T05:55:37;7.10;86.60
38684;DHT22;24910;53.248;-6.134;2023-12-04T05:58:06;7.10;86.60
38684;DHT22;24910;53.248;-6.134;2023-12-04T06:00:35;7.00;86.70
38684;DHT22;24910;53.248;-6.134;2023-12-04T06:03:06;7.10;86.90
38684;DHT22;24910;53.248;-6.134;2023-12-04T06:05:35;7.00;87.00
38684;DHT22;24910;53.248;-6.134;2023-12-04T06:08:05;7.00;87.10
38684;DHT22;24910;53.248;-6.134;2023-12-04T06:10:34;7.00;87.30
38684;DHT22;24910;53.248;-6.134;2023-12-04T06:13:03;7.00;87.40
38684;DHT22;24910;53.248;-6.134;2023-12-04T06:15:32;7.00;87.40
38684;DHT22;24910;53.248;-6.134;2023-12-04T06:18:02;7.00;87.20
38684;DHT22;24910;53.248;-6.134;2023-12-04T06:20:34;7.10;87.10
38684;DHT22;24910;53.248;-6.134;2023-12-04T06:23:03;7.10;86.80
38684;DHT22;24910;53.248;-6.134;2023-12-04T06:25:33;7.00;86.70
38684;DHT22;24910;53.248;-6.134;2023-12-04T06:28:03;7.00;86.70
38684;DHT22;24910;53.248;-6.134;2023-12-04T06:30:33;7.00;86.60
38684;DHT22;24910;53.248;-6.134;2023-12-04T06:33:02;7.00;86.60
38684;DHT22;24910;53.248;-6.134;2023-12-04T06:35:34;7.00;86.70
38684;DHT22;24910;53.248;-6.134;2023-12-04T06:38:05;6.90;86.60
38684;DHT22;24910;53.248;-6.134;2023-12-04T06:40:35;6.90;86.60
38684;DHT22;24910;53.248;-6.134;2023-12-04T06:43:05;7.00;86.50
38684;DHT22;24910;53.248;-6.134;2023-12-04T06:45:35;7.00;86.30
38684;DHT22;24910;53.248;-6.134;2023-12-04T06:48:06;6.90;86.30
38684;DHT22;24910;53.248;-6.134;2023-12-04T06:50:37;6.90;86.30
38684;DHT22;24910;53.248;-6.134;2023-12-04T06:53:07;6.90;86.40
38684;DHT22;24910;53.248;-6.134;2023-12-04T06:55:37;6.90;87.00
38684;DHT22;24910;53.248;-6.134;2023-12-04T06:58:06;6.90;86.10
38684;DHT22;24910;53.248;-6.134;2023-12-04T07:00:35;6.90;86.90
38684;DHT22;24910;53.248;-6.134;2023-12-04T07:03:04;6.90;86.10
38684;DHT22;24910;53.248;-6.134;2023-12-04T07:05:34;6.90;86.20
38684;DHT22;24910;53.248;-6.134;2023-12-04T07:08:04;6.80;86.40
38684;DHT22;24910;53.248;-6.134;2023-12-04T07:10:34;6.80;86.40
38684;DHT22;24910;53.248;-6.134;2023-12-04T07:13:03;6.80;86.30
38684;DHT22;24910;53.248;-6.134;2023-12-04T07:15:32;6.80;86.40
38684;DHT22;24910;53.248;-6.134;2023-12-04T07:18:04;6.80;86.40
38684;DHT22;24910;53.248;-6.134;2023-12-04T07:20:33;6.80;86.80
38684;DHT22;24910;53.248;-6.134;2023-12-04T07:23:04;6.80;86.40
38684;DHT22;24910;53.248;-6.134;2023-12-04T07:25:33;6.80;86.40
38684;DHT22;24910;53.248;-6.134;2023-12-04T07:28:02;6.80;86.50
38684;DHT22;24910;53.248;-6.134;2023-12-04T07:30:32;6.80;86.50
38684;DHT22;24910;53.248;-6.134;2023-12-04T07:33:01;6.70;86.50
38684;DHT22;24910;53.248;-6.134;2023-12-04T07:35:31;6.70;86.70
38684;DHT22;24910;53.248;-6.134;2023-12-04T07:38:01;6.70;86.80
38684;DHT22;24910;53.248;-6.134;2023-12-04T07:40:32;6.70;86.80
38684;DHT22;24910;53.248;-6.134;2023-12-04T07:43:01;6.70;86.90
38684;DHT22;24910;53.248;-6.134;2023-12-04T07:45:31;6.60;86.80
38684;DHT22;24910;53.248;-6.134;2023-12-04T07:48:03;6.60;87.00
38684;DHT22;24910;53.248;-6.134;2023-12-04T07:50:32;6.60;87.00
38684;DHT22;24910;53.248;-6.134;2023-12-04T07:53:01;6.50;87.20
38684;DHT22;24910;53.248;-6.134;2023-12-04T07:55:34;6.50;87.20
38684;DHT22;24910;53.248;-6.134;2023-12-04T07:58:03;6.50;87.10
38684;DHT22;24910;53.248;-6.134;2023-12-04T08:00:32;6.60;87.20
38684;DHT22;24910;53.248;-6.134;2023-12-04T08:03:02;6.50;87.20
38684;DHT22;24910;53.248;-6.134;2023-12-04T08:05:31;6.50;87.40
38684;DHT22;24910;53.248;-6.134;2023-12-04T08:08:01;6.40;87.50
38684;DHT22;24910;53.248;-6.134;2023-12-04T08:10:30;6.40;87.50
38684;DHT22;24910;53.248;-6.134;2023-12-04T08:13:01;6.40;87.60
38684;DHT22;24910;53.248;-6.134;2023-12-04T08:15:30;6.30;87.70
38684;DHT22;24910;53.248;-6.134;2023-12-04T08:18:00;6.30;87.80
38684;DHT22;24910;53.248;-6.134;2023-12-04T08:20:30;6.30;87.90
38684;DHT22;24910;53.248;-6.134;2023-12-04T08:23:07;6.30;87.80
38684;DHT22;24910;53.248;-6.134;2023-12-04T08:25:37;6.40;87.70
38684;DHT22;24910;53.248;-6.134;2023-12-04T08:28:08;6.40;87.50
38684;DHT22;24910;53.248;-6.134;2023-12-04T08:30:38;6.50;87.40
38684;DHT22;24910;53.248;-6.134;2023-12-04T08:33:08;6.50;87.50
38684;DHT22;24910;53.248;-6.134;2023-12-04T08:35:37;6.40;87.40
38684;DHT22;24910;53.248;-6.134;2023-12-04T08:38:06;6.40;87.50
38684;DHT22;24910;53.248;-6.134;2023-12-04T08:40:36;6.40;87.50
38684;DHT22;24910;53.248;-6.134;2023-12-04T08:43:05;6.40;87.60
38684;DHT22;24910;53.248;-6.134;2023-12-04T08:45:36;6.40;87.60
38684;DHT22;24910;53.248;-6.134;2023-12-04T08:48:05;6.40;87.50
38684;DHT22;24910;53.248;-6.134;2023-12-04T08:50:35;6.40;87.30
38684;DHT22;24910;53.248;-6.134;2023-12-04T08:53:04;6.40;87.40
38684;DHT22;24910;53.248;-6.134;2023-12-04T08:55:34;6.40;87.40
38684;DHT22;24910;53.248;-6.134;2023-12-04T08:58:03;6.40;87.50
38684;DHT22;24910;53.248;-6.134;2023-12-04T09:00:33;6.40;87.50
38684;DHT22;24910;53.248;-6.134;2023-12-04T09:03:05;6.40;87.60
38684;DHT22;24910;53.248;-6.134;2023-12-04T09:05:39;6.30;87.60
38684;DHT22;24910;53.248;-6.134;2023-12-04T09:08:09;6.30;87.60
38684;DHT22;24910;53.248;-6.134;2023-12-04T09:10:58;6.30;87.70
38684;DHT22;24910;53.248;-6.134;2023-12-04T09:13:46;6.30;88.60
38684;DHT22;24910;53.248;-6.134;2023-12-04T09:16:16;6.30;87.60
38684;DHT22;24910;53.248;-6.134;2023-12-04T09:18:47;6.40;87.60
38684;DHT22;24910;53.248;-6.134;2023-12-04T09:21:16;6.40;87.60
38684;DHT22;24910;53.248;-6.134;2023-12-04T09:23:46;6.40;87.40
38684;DHT22;24910;53.248;-6.134;2023-12-04T09:26:18;6.40;87.50
38684;DHT22;24910;53.248;-6.134;2023-12-04T09:28:47;6.40;87.50
38684;DHT22;24910;53.248;-6.134;2023-12-04T09:31:17;6.40;87.50
38684;DHT22;24910;53.248;-6.134;2023-12-04T09:33:48;6.30;87.50
38684;DHT22;24910;53.248;-6.134;2023-12-04T09:36:18;6.30;87.60
38684;DHT22;24910;53.248;-6.134;2023-12-04T09:38:47;6.40;87.70
38684;DHT22;24910;53.248;-6.134;2023-12-04T09:41:16;6.30;87.70
38684;DHT22;24910;53.248;-6.134;2023-12-04T09:43:47;6.30;87.70
38684;DHT22;24910;53.248;-6.134;2023-12-04T09:46:18;6.30;87.60
38684;DHT22;24910;53.248;-6.134;2023-12-04T09:48:53;6.30;87.60
38684;DHT22;24910;53.248;-6.134;2023-12-04T09:51:24;6.30;87.50
38684;DHT22;24910;53.248;-6.134;2023-12-04T09:53:57;6.30;87.50
38684;DHT22;24910;53.248;-6.134;2023-12-04T09:56:28;6.30;87.50
38684;DHT22;24910;53.248;-6.134;2023-12-04T09:58:59;6.40;87.50
38684;DHT22;24910;53.248;-6.134;2023-12-04T10:01:29;6.40;87.50
38684;DHT22;24910;53.248;-6.134;2023-12-04T10:04:03;6.40;87.30
38684;DHT22;24910;53.248;-6.134;2023-12-04T10:06:34;6.50;87.30
38684;DHT22;24910;53.248;-6.134;2023-12-04T10:09:06;6.50;87.10
38684;DHT22;24910;53.248;-6.134;2023-12-04T10:11:40;6.50;87.10
38684;DHT22;24910;53.248;-6.134;2023-12-04T10:14:15;6.50;87.00
38684;DHT22;24910;53.248;-6.134;2023-12-04T10:16:45;6.50;87.00
38684;DHT22;24910;53.248;-6.134;2023-12-04T10:19:18;6.60;87.10
38684;DHT22;24910;53.248;-6.134;2023-12-04T10:21:49;6.50;87.10
38684;DHT22;24910;53.248;-6.134;2023-12-04T10:24:30;6.50;87.20
38684;DHT22;24910;53.248;-6.134;2023-12-04T10:27:00;6.40;87.30
38684;DHT22;24910;53.248;-6.134;2023-12-04T10:29:41;6.40;87.50
38684;DHT22;24910;53.248;-6.134;2023-12-04T10:32:11;6.40;87.50
38684;DHT22;24910;53.248;-6.134;2023-12-04T10:34:42;6.40;87.50
38684;DHT22;24910;53.248;-6.134;2023-12-04T10:37:12;6.40;87.50
38684;DHT22;24910;53.248;-6.134;2023-12-04T10:39:48;6.40;87.40
38684;DHT22;24910;53.248;-6.134;2023-12-04T10:42:25;6.40;87.30
38684;DHT22;24910;53.248;-6.134;2023-12-04T10:44:55;6.40;87.50
38684;DHT22;24910;53.248;-6.134;2023-12-04T10:47:25;6.40;87.50
38684;DHT22;24910;53.248;-6.134;2023-12-04T10:49:56;6.40;87.30
38684;DHT22;24910;53.248;-6.134;2023-12-04T10:52:28;6.50;87.30
38684;DHT22;24910;53.248;-6.134;2023-12-04T10:54:59;6.50;87.40
38684;DHT22;24910;53.248;-6.134;2023-12-04T10:57:37;6.50;87.30
38684;DHT22;24910;53.248;-6.134;2023-12-04T11:00:07;6.50;87.30
38684;DHT22;24910;53.248;-6.134;2023-12-04T11:02:40;6.50;87.40
38684;DHT22;24910;53.248;-6.134;2023-12-04T11:05:19;6.50;87.20
38684;DHT22;24910;53.248;-6.134;2023-12-04T11:07:53;6.50;87.10
38684;DHT22;24910;53.248;-6.134;2023-12-04T11:10:48;6.50;87.10
38684;DHT22;24910;53.248;-6.134;2023-12-04T11:13:21;6.50;87.30
38684;DHT22;24910;53.248;-6.134;2023-12-04T11:15:52;6.50;87.30
38684;DHT22;24910;53.248;-6.134;2023-12-04T11:18:25;6.50;87.30
38684;DHT22;24910;53.248;-6.134;2023-12-04T11:20:58;6.50;87.30
38684;DHT22;24910;53.248;-6.134;2023-12-04T11:23:27;6.50;87.20
38684;DHT22;24910;53.248;-6.134;2023-12-04T11:25:58;6.50;87.00
38684;DHT22;24910;53.248;-6.134;2023-12-04T11:28:28;6.60;87.10
38684;DHT22;24910;53.248;-6.134;2023-12-04T11:30:58;6.50;87.10
38684;DHT22;24910;53.248;-6.134;2023-12-04T11:33:34;6.60;87.20
38684;DHT22;24910;53.248;-6.134;2023-12-04T11:36:11;6.60;87.20
38684;DHT22;24910;53.248;-6.134;2023-12-04T11:38:44;6.60;87.10
38684;DHT22;24910;53.248;-6.134;2023-12-04T11:41:16;6.60;87.10
38684;DHT22;24910;53.248;-6.134;2023-12-04T11:43:51;6.60;86.90
38684;DHT22;24910;53.248;-6.134;2023-12-04T11:46:23;6.60;87.00
38684;DHT22;24910;53.248;-6.134;2023-12-04T11:48:54;6.70;87.00
38684;DHT22;24910;53.248;-6.134;2023-12-04T11:54:18;6.70;87.00
38684;DHT22;24910;53.248;-6.134;2023-12-04T11:56:58;6.60;87.00
38684;DHT22;24910;53.248;-6.134;2023-12-04T11:59:28;6.60;87.00
38684;DHT22;24910;53.248;-6.134;2023-12-04T12:01:58;6.70;87.00
38684;DHT22;24910;53.248;-6.134;2023-12-04T12:04:28;6.70;86.90
38684;DHT22;24910;53.248;-6.134;2023-12-04T12:06:59;6.70;86.80
38684;DHT22;24910;53.248;-6.134;2023-12-04T12:09:32;6.80;86.80
38684;DHT22;24910;53.248;-6.134;2023-12-04T12:12:02;6.80;86.80
38684;DHT22;24910;53.248;-6.134;2023-12-04T12:14:32;6.80;86.80
38684;DHT22;24910;53.248;-6.134;2023-12-04T12:17:01;6.80;86.80
38684;DHT22;24910;53.248;-6.134;2023-12-04T12:19:31;6.80;86.70
38684;DHT22;24910;53.248;-6.134;2023-12-04T12:22:00;6.90;86.80
38684;DHT22;24910;53.248;-6.134;2023-12-04T12:24:35;6.90;86.90
38684;DHT22;24910;53.248;-6.134;2023-12-04T12:27:05;6.80;86.70
38684;DHT22;24910;53.248;-6.134;2023-12-04T12:29:35;6.90;86.70
38684;DHT22;24910;53.248;-6.134;2023-12-04T12:32:05;6.90;86.70
38684;DHT22;24910;53.248;-6.134;2023-12-04T12:34:35;6.90;86.70
38684;DHT22;24910;53.248;-6.134;2023-12-04T12:37:04;7.00;86.60
38684;DHT22;24910;53.248;-6.134;2023-12-04T12:39:35;7.00;86.70
38684;DHT22;24910;53.248;-6.134;2023-12-04T12:42:05;7.00;86.70
38684;DHT22;24910;53.248;-6.134;2023-12-04T12:44:38;7.00;87.60
38684;DHT22;24910;53.248;-6.134;2023-12-04T12:47:08;7.00;86.80
38684;DHT22;24910;53.248;-6.134;2023-12-04T12:49:38;7.00;86.60
38684;DHT22;24910;53.248;-6.134;2023-12-04T12:52:10;7.00;86.60
38684;DHT22;24910;53.248;-6.134;2023-12-04T12:54:41;7.00;86.50
38684;DHT22;24910;53.248;-6.134;2023-12-04T12:57:12;7.00;86.60
38684;DHT22;24910;53.248;-6.134;2023-12-04T12:59:41;7.10;86.70
38684;DHT22;24910;53.248;-6.134;2023-12-04T13:02:10;7.10;86.60
38684;DHT22;24910;53.248;-6.134;2023-12-04T13:04:41;7.10;86.50
38684;DHT22;24910;53.248;-6.134;2023-12-04T13:07:11;7.20;86.60
38684;DHT22;24910;53.248;-6.134;2023-12-04T13:09:41;7.20;86.60
38684;DHT22;24910;53.248;-6.134;2023-12-04T13:12:11;7.20;86.60
38684;DHT22;24910;53.248;-6.134;2023-12-04T13:14:41;7.20;86.60
38684;DHT22;24910;53.248;-6.134;2023-12-04T13:17:11;7.20;86.60
38684;DHT22;24910;53.248;-6.134;2023-12-04T13:19:40;7.20;86.60
38684;DHT22;24910;53.248;-6.134;2023-12-04T13:22:09;7.20;86.60
38684;DHT22;24910;53.248;-6.134;2023-12-04T13:24:38;7.30;86.60
38684;DHT22;24910;53.248;-6.134;2023-12-04T13:27:10;7.30;86.60
38684;DHT22;24910;53.248;-6.134;2023-12-04T13:29:41;7.30;86.60
38684;DHT22;24910;53.248;-6.134;2023-12-04T13:32:10;7.30;86.70
38684;DHT22;24910;53.248;-6.134;2023-12-04T13:34:40;7.30;86.70
38684;DHT22;24910;53.248;-6.134;2023-12-04T13:37:10;7.30;86.80
38684;DHT22;24910;53.248;-6.134;2023-12-04T13:39:39;7.30;86.80
38684;DHT22;24910;53.248;-6.134;2023-12-04T13:42:18;7.30;86.80
38684;DHT22;24910;53.248;-6.134;2023-12-04T13:45:06;7.30;87.00
38684;DHT22;24910;53.248;-6.134;2023-12-04T13:47:37;7.30;86.90
38684;DHT22;24910;53.248;-6.134;2023-12-04T13:50:07;7.30;86.80
38684;DHT22;24910;53.248;-6.134;2023-12-04T13:52:37;7.40;86.90
38684;DHT22;24910;53.248;-6.134;2023-12-04T13:55:08;7.40;87.00
38684;DHT22;24910;53.248;-6.134;2023-12-04T13:57:44;7.40;87.00
38684;DHT22;24910;53.248;-6.134;2023-12-04T14:00:28;7.40;87.00
38684;DHT22;24910;53.248;-6.134;2023-12-04T14:02:57;7.50;87.00
38684;DHT22;24910;53.248;-6.134;2023-12-04T14:05:33;7.50;87.00
38684;DHT22;24910;53.248;-6.134;2023-12-04T14:08:04;7.50;87.10
38684;DHT22;24910;53.248;-6.134;2023-12-04T14:10:34;7.40;87.00
38684;DHT22;24910;53.248;-6.134;2023-12-04T14:13:05;7.50;87.10
38684;DHT22;24910;53.248;-6.134;2023-12-04T14:15:34;7.50;87.00
38684;DHT22;24910;53.248;-6.134;2023-12-04T14:18:04;7.50;87.00
38684;DHT22;24910;53.248;-6.134;2023-12-04T14:20:33;7.60;87.00
38684;DHT22;24910;53.248;-6.134;2023-12-04T14:23:02;7.60;87.00
38684;DHT22;24910;53.248;-6.134;2023-12-04T14:25:32;7.60;87.10
38684;DHT22;24910;53.248;-6.134;2023-12-04T14:28:02;7.60;87.10
38684;DHT22;24910;53.248;-6.134;2023-12-04T14:30:33;7.60;87.10
38684;DHT22;24910;53.248;-6.134;2023-12-04T14:33:03;7.60;87.10
38684;DHT22;24910;53.248;-6.134;2023-12-04T14:35:33;7.60;87.20
38684;DHT22;24910;53.248;-6.134;2023-12-04T14:38:02;7.60;87.20
38684;DHT22;24910;53.248;-6.134;2023-12-04T14:40:32;7.60;87.20
38684;DHT22;24910;53.248;-6.134;2023-12-04T14:43:01;7.70;87.20
38684;DHT22;24910;53.248;-6.134;2023-12-04T14:45:32;7.70;87.20
38684;DHT22;24910;53.248;-6.134;2023-12-04T14:48:02;7.70;87.20
38684;DHT22;24910;53.248;-6.134;2023-12-04T14:50:35;7.70;87.20
38684;DHT22;24910;53.248;-6.134;2023-12-04T14:53:05;7.70;87.30
38684;DHT22;24910;53.248;-6.134;2023-12-04T14:55:44;7.60;87.30
38684;DHT22;24910;53.248;-6.134;2023-12-04T14:58:27;7.70;87.20
38684;DHT22;24910;53.248;-6.134;2023-12-04T15:01:12;7.70;87.20
38684;DHT22;24910;53.248;-6.134;2023-12-04T15:04:01;7.70;87.10
38684;DHT22;24910;53.248;-6.134;2023-12-04T15:06:50;7.70;87.20
38684;DHT22;24910;53.248;-6.134;2023-12-04T15:09:45;7.60;87.20
38684;DHT22;24910;53.248;-6.134;2023-12-04T15:12:28;7.60;87.30
38684;DHT22;24910;53.248;-6.134;2023-12-04T15:15:01;7.60;87.50
38684;DHT22;24910;53.248;-6.134;2023-12-04T15:17:42;7.60;87.50
38684;DHT22;24910;53.248;-6.134;2023-12-04T15:20:18;7.60;87.70
38684;DHT22;24910;53.248;-6.134;2023-12-04T15:23:00;7.60;87.80
38684;DHT22;24910;53.248;-6.134;2023-12-04T15:25:32;7.60;87.70
38684;DHT22;24910;53.248;-6.134;2023-12-04T15:28:05;7.60;87.80
38684;DHT22;24910;53.248;-6.134;2023-12-04T15:30:35;7.60;87.80
38684;DHT22;24910;53.248;-6.134;2023-12-04T15:33:03;7.60;87.90
38684;DHT22;24910;53.248;-6.134;2023-12-04T15:35:33;7.60;87.90
38684;DHT22;24910;53.248;-6.134;2023-12-04T15:38:01;7.60;88.00
38684;DHT22;24910;53.248;-6.134;2023-12-04T15:40:32;7.60;88.00
38684;DHT22;24910;53.248;-6.134;2023-12-04T15:43:01;7.60;88.00
38684;DHT22;24910;53.248;-6.134;2023-12-04T15:45:30;7.60;88.00
38684;DHT22;24910;53.248;-6.134;2023-12-04T15:47:58;7.60;88.00
38684;DHT22;24910;53.248;-6.134;2023-12-04T15:50:28;7.60;87.90
38684;DHT22;24910;53.248;-6.134;2023-12-04T15:52:56;7.70;88.00
38684;DHT22;24910;53.248;-6.134;2023-12-04T15:55:27;7.60;87.90